Time,TemperatureF,DewpointF,PressureIn,WindDirection,WindDirectionDegrees,WindSpeedMPH,WindSpeedGustMPH,Humidity,HourlyPrecipIn,Conditions,Clouds,dailyrainin,SoftwareType,DateUTC
2013-02-13 00:00:00,41.9,35.9,29.80,NNE,12,4.0,10.0,79,0.00,,-RA,0.00,VWS V14.01,2013-02-13 06:00:00,
2013-02-13 00:10:00,41.8,36.1,29.80,NNW,338,7.0,11.0,80,0.00,,-RA,0.00,VWS V14.01,2013-02-13 06:10:00,
2013-02-13 00:15:00,41.8,36.1,29.80,NW,317,5.0,11.0,80,0.00,,-RA,0.00,VWS V14.01,2013-02-13 06:15:00,
2013-02-13 00:25:00,41.6,35.9,29.80,NNW,337,7.0,9.0,80,0.00,,-RA,0.00,VWS V14.01,2013-02-13 06:25:00,
2013-02-13 00:35:00,41.6,35.9,29.80,North,355,5.0,10.0,80,0.00,,-RA,0.00,VWS V14.01,2013-02-13 06:35:00,
2013-02-13 00:45:00,41.6,35.9,29.80,North,349,3.0,9.0,80,0.00,,-RA,0.00,VWS V14.01,2013-02-13 06:45:00,
2013-02-13 00:50:00,41.6,35.9,29.80,North,360,6.0,10.0,80,0.00,,-RA,0.00,VWS V14.01,2013-02-13 06:50:00,
2013-02-13 01:00:00,41.6,35.9,29.80,NNW,330,4.0,8.0,80,0.00,,-RA,0.00,VWS V14.01,2013-02-13 07:00:00,
2013-02-13 01:10:00,41.5,36.1,29.80,NNE,14,6.0,11.0,81,0.00,,-RA,0.00,VWS V14.01,2013-02-13 07:10:00,
2013-02-13 01:15:00,41.3,35.9,29.80,North,360,6.0,7.0,81,0.00,,-RA,0.00,VWS V14.01,2013-02-13 07:15:00,
2013-02-13 01:25:00,41.3,36.2,29.80,NNW,342,4.0,7.0,82,0.01,,-RA,0.01,VWS V14.01,2013-02-13 07:25:00,
2013-02-13 01:35:00,41.1,36.3,29.81,NNW,340,4.0,7.0,83,0.01,,-RA,0.01,VWS V14.01,2013-02-13 07:35:00,
2013-02-13 01:40:00,41.1,36.3,29.81,NNW,345,7.0,8.0,83,0.01,,-RA,0.01,VWS V14.01,2013-02-13 07:40:00,
2013-02-13 01:45:00,40.9,36.5,29.81,NNE,18,6.0,9.0,84,0.02,,-RA,0.02,VWS V14.01,2013-02-13 07:45:00,
2013-02-13 01:55:00,40.6,36.2,29.81,North,355,6.0,10.0,84,0.03,,-RA,0.03,VWS V14.01,2013-02-13 07:55:00,
2013-02-13 02:00:00,40.5,36.3,29.80,North,355,10.0,10.0,85,0.04,,-RA,0.04,VWS V14.01,2013-02-13 08:00:00,
2013-02-13 02:05:00,40.5,36.3,29.80,NNW,342,4.0,10.0,85,0.04,,RA,0.04,VWS V14.01,2013-02-13 08:05:00,
2013-02-13 02:15:00,40.3,36.5,29.80,NNE,27,6.0,9.0,86,0.04,,RA,0.04,VWS V14.01,2013-02-13 08:15:00,
2013-02-13 02:20:00,40.2,36.3,29.80,North,355,6.0,9.0,86,0.05,,RA,0.05,VWS V14.01,2013-02-13 08:20:00,
2013-02-13 02:25:00,40.2,36.3,29.80,NNW,345,4.0,10.0,86,0.05,,RA,0.05,VWS V14.01,2013-02-13 08:25:00,
2013-02-13 02:30:00,40.1,36.3,29.80,NNW,346,8.0,12.0,86,0.04,,RA,0.05,VWS V14.01,2013-02-13 08:30:00,
2013-02-13 02:40:00,39.5,35.7,29.80,NNW,342,12.0,15.0,86,0.04,,RA,0.05,VWS V14.01,2013-02-13 08:40:00,
2013-02-13 02:50:00,39.2,35.4,29.79,NW,319,9.0,17.0,86,0.03,,RA,0.05,VWS V14.01,2013-02-13 08:50:00,
2013-02-13 02:55:00,39.1,35.6,29.79,North,360,5.0,14.0,87,0.02,,RA,0.05,VWS V14.01,2013-02-13 08:55:00,
2013-02-13 03:00:00,38.9,35.4,29.78,North,355,8.0,12.0,87,0.02,,RA,0.05,VWS V14.01,2013-02-13 09:00:00,
2013-02-13 03:05:00,38.8,35.3,29.78,NNW,342,7.0,15.0,87,0.01,,RA,0.05,VWS V14.01,2013-02-13 09:05:00,
2013-02-13 03:10:00,38.8,35.3,29.78,NNW,327,8.0,13.0,87,0.01,,RA,0.05,VWS V14.01,2013-02-13 09:10:00,
2013-02-13 03:20:00,38.5,35.0,29.78,WNW,301,12.0,16.0,87,0.02,,RA,0.06,VWS V14.01,2013-02-13 09:20:00,
2013-02-13 03:30:00,38.5,35.0,29.78,North,350,7.0,16.0,87,0.01,,RA,0.06,VWS V14.01,2013-02-13 09:30:00,
2013-02-13 03:35:00,38.5,35.0,29.78,North,355,5.0,13.0,87,0.01,,-RA,0.06,VWS V14.01,2013-02-13 09:35:00,
2013-02-13 03:40:00,38.5,35.0,29.78,NNW,327,7.0,15.0,87,0.02,,-RA,0.07,VWS V14.01,2013-02-13 09:40:00,
2013-02-13 03:50:00,38.3,34.8,29.78,NNW,346,10.0,21.0,87,0.02,,-RA,0.07,VWS V14.01,2013-02-13 09:50:00,
2013-02-13 04:00:00,38.2,34.7,29.78,North,355,12.0,13.0,87,0.02,,-RA,0.07,VWS V14.01,2013-02-13 10:00:00,
2013-02-13 04:05:00,38.0,34.5,29.78,NNW,342,5.0,15.0,87,0.03,,-RA,0.08,VWS V14.01,2013-02-13 10:05:00,
2013-02-13 04:10:00,38.0,34.5,29.78,North,355,10.0,11.0,87,0.03,,-RA,0.08,VWS V14.01,2013-02-13 10:10:00,
2013-02-13 04:20:00,37.8,34.6,29.78,North,355,6.0,12.0,88,0.03,,-RA,0.09,VWS V14.01,2013-02-13 10:20:00,
2013-02-13 04:25:00,37.8,34.6,29.78,NNW,334,4.0,11.0,88,0.04,,-RA,0.10,VWS V14.01,2013-02-13 10:25:00,
2013-02-13 04:35:00,37.8,34.6,29.79,North,355,9.0,11.0,88,0.04,,-RA,0.10,VWS V14.01,2013-02-13 10:35:00,
2013-02-13 04:40:00,37.9,34.7,29.79,NNW,331,5.0,9.0,88,0.04,,-RA,0.10,VWS V14.01,2013-02-13 10:40:00,
2013-02-13 04:50:00,38.0,34.8,29.79,NNW,333,2.0,9.0,88,0.04,,-RA,0.11,VWS V14.01,2013-02-13 10:50:00,
2013-02-13 04:55:00,38.2,35.2,29.79,NNW,346,2.0,11.0,89,0.04,,-RA,0.11,VWS V14.01,2013-02-13 10:55:00,
2013-02-13 05:05:00,38.3,35.3,29.80,NNW,338,5.0,10.0,89,0.04,,-RA,0.11,VWS V14.01,2013-02-13 11:05:00,
2013-02-13 05:10:00,38.5,35.3,29.80,North,350,5.0,10.0,88,0.03,,-RA,0.11,VWS V14.01,2013-02-13 11:10:00,
2013-02-13 05:15:00,38.6,35.4,29.79,NNW,338,7.0,10.0,88,0.03,,-RA,0.11,VWS V14.01,2013-02-13 11:15:00,
2013-02-13 05:20:00,38.8,35.6,29.79,NNW,343,5.0,9.0,88,0.02,,-RA,0.11,VWS V14.01,2013-02-13 11:20:00,
2013-02-13 05:30:00,38.9,35.4,29.80,NNW,338,2.0,8.0,87,0.01,,-RA,0.11,VWS V14.01,2013-02-13 11:30:00,
2013-02-13 05:35:00,39.1,35.6,29.80,North,9,3.0,7.0,87,0.01,,-RA,0.11,VWS V14.01,2013-02-13 11:35:00,
2013-02-13 05:45:00,39.1,35.6,29.81,NNW,340,5.0,6.0,87,0.02,,-RA,0.12,VWS V14.01,2013-02-13 11:45:00,
2013-02-13 05:50:00,39.1,35.6,29.81,NNW,334,4.0,12.0,87,0.02,,-RA,0.12,VWS V14.01,2013-02-13 11:50:00,
2013-02-13 06:00:00,39.1,35.3,29.80,NNE,14,8.0,14.0,86,0.01,,-RA,0.12,VWS V14.01,2013-02-13 12:00:00,
2013-02-13 06:10:00,39.1,35.3,29.80,NNW,334,8.0,11.0,86,0.01,,-RA,0.12,VWS V14.01,2013-02-13 12:10:00,
2013-02-13 06:20:00,38.9,35.1,29.81,North,360,10.0,15.0,86,0.01,,-RA,0.12,VWS V14.01,2013-02-13 12:20:00,
2013-02-13 06:30:00,38.6,34.5,29.81,North,355,10.0,10.0,85,0.01,,-RA,0.12,VWS V14.01,2013-02-13 12:30:00,
2013-02-13 06:40:00,38.5,34.4,29.81,North,350,6.0,12.0,85,0.01,,-RA,0.12,VWS V14.01,2013-02-13 12:40:00,
2013-02-13 06:45:00,38.5,34.4,29.82,NNW,343,6.0,11.0,85,0.01,,-RA,0.12,VWS V14.01,2013-02-13 12:45:00,
2013-02-13 06:50:00,38.5,34.4,29.82,NNW,338,7.0,13.0,85,0.00,,-RA,0.12,VWS V14.01,2013-02-13 12:50:00,
2013-02-13 06:55:00,38.3,34.2,29.82,NNW,342,3.0,12.0,85,0.00,,-RA,0.12,VWS V14.01,2013-02-13 12:55:00,
2013-02-13 07:00:00,38.3,34.2,29.82,North,5,8.0,10.0,85,0.00,,-RA,0.12,VWS V14.01,2013-02-13 13:00:00,
2013-02-13 07:05:00,38.3,34.5,29.82,NNW,342,4.0,10.0,86,0.00,,-RA,0.12,VWS V14.01,2013-02-13 13:05:00,
2013-02-13 07:15:00,38.3,34.5,29.83,NW,326,5.0,10.0,86,0.00,,-RA,0.12,VWS V14.01,2013-02-13 13:15:00,
2013-02-13 07:25:00,38.5,34.7,29.83,North,355,6.0,10.0,86,0.00,,-RA,0.12,VWS V14.01,2013-02-13 13:25:00,
2013-02-13 07:30:00,38.5,34.7,29.84,NNW,344,3.0,9.0,86,0.00,,-RA,0.12,VWS V14.01,2013-02-13 13:30:00,
2013-02-13 07:35:00,38.6,34.8,29.84,North,355,4.0,9.0,86,0.00,,OVC018,0.12,VWS V14.01,2013-02-13 13:35:00,
2013-02-13 07:45:00,38.8,35.0,29.86,NNW,333,3.0,8.0,86,0.00,,OVC018,0.12,VWS V14.01,2013-02-13 13:45:00,
2013-02-13 07:50:00,38.8,35.0,29.86,NNW,338,5.0,8.0,86,0.00,,OVC018,0.12,VWS V14.01,2013-02-13 13:50:00,
2013-02-13 08:00:00,38.9,35.1,29.86,North,11,4.0,7.0,86,0.00,,OVC018,0.12,VWS V14.01,2013-02-13 14:00:00,
2013-02-13 08:05:00,39.1,35.3,29.86,North,355,4.0,11.0,86,0.00,,OVC014,0.12,VWS V14.01,2013-02-13 14:05:00,
2013-02-13 08:15:00,39.2,35.4,29.87,NNW,338,2.0,7.0,86,0.00,,OVC014,0.12,VWS V14.01,2013-02-13 14:15:00,
2013-02-13 08:20:00,39.2,35.4,29.87,North,355,5.0,8.0,86,0.00,,OVC014,0.12,VWS V14.01,2013-02-13 14:20:00,
2013-02-13 08:30:00,39.3,35.5,29.88,NNW,327,2.0,6.0,86,0.00,,OVC014,0.12,VWS V14.01,2013-02-13 14:30:00,
2013-02-13 08:40:00,39.3,35.2,29.88,NNW,344,3.0,7.0,85,0.00,,OVC012,0.12,VWS V14.01,2013-02-13 14:40:00,
2013-02-13 08:45:00,39.3,35.2,29.89,NNW,344,4.0,8.0,85,0.00,,OVC012,0.12,VWS V14.01,2013-02-13 14:45:00,
2013-02-13 08:50:00,39.2,35.1,29.89,North,350,4.0,8.0,85,0.00,,OVC012,0.12,VWS V14.01,2013-02-13 14:50:00,
2013-02-13 09:00:00,39.5,35.4,29.89,NNW,329,6.0,7.0,85,0.00,,OVC012,0.12,VWS V14.01,2013-02-13 15:00:00,
2013-02-13 09:05:00,39.6,35.5,29.89,NW,323,8.0,8.0,85,0.00,,-RA,0.12,VWS V14.01,2013-02-13 15:05:00,
2013-02-13 09:15:00,39.5,35.4,29.89,NW,326,3.0,8.0,85,0.00,,-RA,0.12,VWS V14.01,2013-02-13 15:15:00,
2013-02-13 09:25:00,39.8,35.7,29.89,NNW,331,3.0,9.0,85,0.00,,-RA,0.12,VWS V14.01,2013-02-13 15:25:00,
2013-02-13 09:30:00,39.8,35.7,29.90,NNW,332,4.0,11.0,85,0.00,,-RA,0.12,VWS V14.01,2013-02-13 15:30:00,
2013-02-13 09:35:00,39.8,35.7,29.90,NNW,348,3.0,11.0,85,0.00,,-RA,0.12,VWS V14.01,2013-02-13 15:35:00,
2013-02-13 09:40:00,39.9,35.8,29.90,NNW,327,6.0,8.0,85,0.00,,-RA,0.12,VWS V14.01,2013-02-13 15:40:00,
2013-02-13 09:45:00,40.2,36.1,29.90,NNW,336,2.0,8.0,85,0.00,,-RA,0.12,VWS V14.01,2013-02-13 15:45:00,
2013-02-13 09:55:00,40.3,35.9,29.90,North,355,5.0,9.0,84,0.00,,-RA,0.12,VWS V14.01,2013-02-13 15:55:00,
2013-02-13 10:00:00,40.3,36.2,29.91,NNW,327,3.0,7.0,85,0.00,,-RA,0.12,VWS V14.01,2013-02-13 16:00:00,
2013-02-13 10:05:00,40.3,36.2,29.91,NNW,328,1.0,7.0,85,0.00,,-RA,0.12,VWS V14.01,2013-02-13 16:05:00,
2013-02-13 10:15:00,40.1,36.0,29.91,NW,313,6.0,10.0,85,0.00,,-RA,0.12,VWS V14.01,2013-02-13 16:15:00,
2013-02-13 10:20:00,40.1,36.0,29.91,NNW,329,2.0,8.0,85,0.00,,-RA,0.12,VWS V14.01,2013-02-13 16:20:00,
2013-02-13 10:30:00,40.3,35.9,29.92,North,351,5.0,10.0,84,0.00,,-RA,0.12,VWS V14.01,2013-02-13 16:30:00,
2013-02-13 10:35:00,40.5,35.8,29.92,NW,325,8.0,9.0,83,0.00,,OVC035,0.12,VWS V14.01,2013-02-13 16:35:00,
2013-02-13 10:45:00,40.6,35.2,29.92,North,355,4.0,10.0,81,0.00,,OVC035,0.12,VWS V14.01,2013-02-13 16:45:00,
2013-02-13 10:50:00,40.9,35.2,29.92,North,355,6.0,8.0,80,0.00,,OVC035,0.12,VWS V14.01,2013-02-13 16:50:00,
2013-02-13 10:55:00,41.1,35.4,29.92,NNW,335,2.0,7.0,80,0.00,,OVC035,0.12,VWS V14.01,2013-02-13 16:55:00,
2013-02-13 11:00:00,41.5,36.1,29.92,NNW,337,4.0,7.0,81,0.00,,OVC035,0.12,VWS V14.01,2013-02-13 17:00:00,
2013-02-13 11:05:00,41.6,35.9,29.92,NW,316,3.0,6.0,80,0.00,,OVC035,0.12,VWS V14.01,2013-02-13 17:05:00,
2013-02-13 11:10:00,41.6,35.9,29.92,West,270,5.0,6.0,80,0.00,,OVC035,0.12,VWS V14.01,2013-02-13 17:10:00,
2013-02-13 11:20:00,41.6,35.9,29.92,West,276,2.0,5.0,80,0.00,,OVC035,0.12,VWS V14.01,2013-02-13 17:20:00,
2013-02-13 11:30:00,41.5,35.8,29.91,West,265,2.0,4.0,80,0.00,,OVC035,0.12,VWS V14.01,2013-02-13 17:30:00,
2013-02-13 11:35:00,41.3,35.6,29.91,West,276,1.0,5.0,80,0.00,,OVC060,0.12,VWS V14.01,2013-02-13 17:35:00,
2013-02-13 11:40:00,41.3,35.6,29.91,West,263,2.0,4.0,80,0.00,,OVC060,0.12,VWS V14.01,2013-02-13 17:40:00,
2013-02-13 11:50:00,41.3,35.3,29.91,WSW,254,1.0,4.0,79,0.00,,OVC080,0.12,VWS V14.01,2013-02-13 17:50:00,
2013-02-13 12:00:00,41.8,36.1,29.91,SW,219,2.0,7.0,80,0.00,,OVC080,0.12,VWS V14.01,2013-02-13 18:00:00,
2013-02-13 12:10:00,41.9,36.2,29.91,SW,232,4.0,5.0,80,0.00,,OVC080,0.12,VWS V14.01,2013-02-13 18:10:00,
2013-02-13 12:20:00,42.1,36.4,29.90,SW,233,2.0,6.0,80,0.00,,OVC080,0.12,VWS V14.01,2013-02-13 18:20:00,
2013-02-13 12:25:00,42.3,36.6,29.90,SW,215,2.0,4.0,80,0.00,,OVC080,0.12,VWS V14.01,2013-02-13 18:25:00,
2013-02-13 12:35:00,42.6,36.5,29.90,SW,232,4.0,5.0,79,0.00,,OVC050,0.12,VWS V14.01,2013-02-13 18:35:00,
2013-02-13 12:45:00,42.8,36.4,29.89,WSW,238,6.0,6.0,78,0.00,,OVC050,0.12,VWS V14.01,2013-02-13 18:45:00,
2013-02-13 12:55:00,43.3,36.3,29.89,SW,233,4.0,6.0,76,0.00,,OVC050,0.12,VWS V14.01,2013-02-13 18:55:00,
2013-02-13 13:00:00,43.2,36.2,29.89,SW,225,1.0,6.0,76,0.00,,OVC050,0.12,VWS V14.01,2013-02-13 19:00:00,
2013-02-13 13:10:00,43.9,37.2,29.89,SSW,212,1.0,7.0,77,0.00,,OVC050,0.12,VWS V14.01,2013-02-13 19:10:00,
2013-02-13 13:15:00,43.9,37.2,29.88,SW,216,3.0,7.0,77,0.00,,OVC050,0.12,VWS V14.01,2013-02-13 19:15:00,
2013-02-13 13:20:00,44.2,37.5,29.88,WSW,258,4.0,9.0,77,0.00,,OVC050,0.12,VWS V14.01,2013-02-13 19:20:00,
2013-02-13 13:25:00,44.3,37.6,29.88,SW,236,4.0,7.0,77,0.00,,OVC050,0.12,VWS V14.01,2013-02-13 19:25:00,
2013-02-13 13:30:00,43.9,37.2,29.88,SW,229,4.0,7.0,77,0.00,,OVC050,0.12,VWS V14.01,2013-02-13 19:30:00,
2013-02-13 13:40:00,44.2,37.5,29.88,SW,229,6.0,7.0,77,0.00,,SCT020,0.12,VWS V14.01,2013-02-13 19:40:00,
2013-02-13 13:50:00,44.2,37.1,29.88,SW,232,4.0,9.0,76,0.00,,SCT020,0.12,VWS V14.01,2013-02-13 19:50:00,
2013-02-13 13:55:00,44.2,37.1,29.88,SW,230,1.0,10.0,76,0.00,,SCT020,0.12,VWS V14.01,2013-02-13 19:55:00,
2013-02-13 14:00:00,44.6,37.5,29.87,SSW,198,0.0,8.0,76,0.00,,SCT020,0.12,VWS V14.01,2013-02-13 20:00:00,
2013-02-13 14:10:00,45.7,38.6,29.87,SSW,193,0.0,10.0,76,0.00,,SCT020,0.12,VWS V14.01,2013-02-13 20:10:00,
2013-02-13 14:15:00,45.5,38.0,29.86,SW,220,8.0,11.0,75,0.00,,SCT020,0.12,VWS V14.01,2013-02-13 20:15:00,
2013-02-13 14:20:00,45.7,38.2,29.86,SSW,201,2.0,12.0,75,0.00,,SCT020,0.12,VWS V14.01,2013-02-13 20:20:00,
2013-02-13 14:30:00,46.2,38.4,29.86,SSW,202,2.0,8.0,74,0.00,,SCT020,0.12,VWS V14.01,2013-02-13 20:30:00,
2013-02-13 14:35:00,46.1,38.3,29.86,SSW,201,2.0,9.0,74,0.00,,FEW022,0.12,VWS V14.01,2013-02-13 20:35:00,
2013-02-13 14:45:00,46.1,38.6,29.86,SSE,166,1.0,8.0,75,0.00,,FEW022,0.12,VWS V14.01,2013-02-13 20:45:00,
2013-02-13 14:55:00,46.0,38.2,29.86,South,173,7.0,8.0,74,0.00,,FEW022,0.12,VWS V14.01,2013-02-13 20:55:00,
2013-02-13 15:00:00,46.2,38.4,29.86,SSE,153,2.0,11.0,74,0.00,,FEW022,0.12,VWS V14.01,2013-02-13 21:00:00,
2013-02-13 15:05:00,46.8,39.3,29.86,SSW,211,2.0,8.0,75,0.00,,FEW022,0.12,VWS V14.01,2013-02-13 21:05:00,
2013-02-13 15:10:00,47.1,38.9,29.86,SW,221,6.0,10.0,73,0.00,,FEW022,0.12,VWS V14.01,2013-02-13 21:10:00,
2013-02-13 15:20:00,47.3,39.1,29.86,SSW,201,1.0,10.0,73,0.00,,FEW022,0.12,VWS V14.01,2013-02-13 21:20:00,
2013-02-13 15:25:00,47.4,38.5,29.86,SW,230,5.0,8.0,71,0.00,,FEW022,0.12,VWS V14.01,2013-02-13 21:25:00,
2013-02-13 15:35:00,47.1,37.8,29.86,SW,221,4.0,10.0,70,0.00,,CLR,0.12,VWS V14.01,2013-02-13 21:35:00,
2013-02-13 15:45:00,47.0,39.2,29.86,West,263,5.0,10.0,74,0.00,,CLR,0.12,VWS V14.01,2013-02-13 21:45:00,
2013-02-13 15:55:00,46.8,38.3,29.86,SSW,198,3.0,8.0,72,0.00,,CLR,0.12,VWS V14.01,2013-02-13 21:55:00,
2013-02-13 16:00:00,46.7,38.5,29.86,WSW,251,6.0,10.0,73,0.00,,CLR,0.12,VWS V14.01,2013-02-13 22:00:00,
2013-02-13 16:05:00,46.7,38.9,29.86,SW,217,4.0,8.0,74,0.00,,CLR,0.12,VWS V14.01,2013-02-13 22:05:00,
2013-02-13 16:10:00,47.0,39.2,29.86,South,173,1.0,8.0,74,0.00,,CLR,0.12,VWS V14.01,2013-02-13 22:10:00,
2013-02-13 16:20:00,47.3,39.1,29.86,SSW,197,1.0,8.0,73,0.00,,CLR,0.12,VWS V14.01,2013-02-13 22:20:00,
2013-02-13 16:25:00,47.4,39.2,29.86,SSE,158,8.0,8.0,73,0.00,,CLR,0.12,VWS V14.01,2013-02-13 22:25:00,
2013-02-13 16:30:00,47.4,38.8,29.86,SW,221,3.0,11.0,72,0.00,,CLR,0.12,VWS V14.01,2013-02-13 22:30:00,
2013-02-13 16:35:00,47.4,38.8,29.86,South,171,4.0,8.0,72,0.00,,SCT050,0.12,VWS V14.01,2013-02-13 22:35:00,
2013-02-13 16:45:00,47.3,39.1,29.86,SSE,161,6.0,9.0,73,0.00,,SCT050,0.12,VWS V14.01,2013-02-13 22:45:00,
2013-02-13 16:55:00,47.0,39.2,29.86,SSW,202,1.0,6.0,74,0.00,,SCT050,0.12,VWS V14.01,2013-02-13 22:55:00,
2013-02-13 17:00:00,47.0,39.2,29.85,SW,225,3.0,6.0,74,0.00,,SCT050,0.12,VWS V14.01,2013-02-13 23:00:00,
2013-02-13 17:05:00,46.8,39.3,29.85,South,178,4.0,7.0,75,0.00,,SCT050,0.12,VWS V14.01,2013-02-13 23:05:00,
2013-02-13 17:15:00,46.4,39.3,29.85,South,188,4.0,6.0,76,0.00,,SCT050,0.12,VWS V14.01,2013-02-13 23:15:00,
2013-02-13 17:25:00,46.0,38.5,29.85,SW,216,0.0,5.0,75,0.00,,SCT050,0.12,VWS V14.01,2013-02-13 23:25:00,
2013-02-13 17:35:00,45.5,38.4,29.86,WSW,237,2.0,5.0,76,0.00,,CLR,0.12,VWS V14.01,2013-02-13 23:35:00,
2013-02-13 17:45:00,44.9,38.1,29.86,SSW,196,1.0,5.0,77,0.00,,CLR,0.12,VWS V14.01,2013-02-13 23:45:00,
2013-02-13 17:50:00,44.6,38.2,29.86,South,188,2.0,5.0,78,0.00,,CLR,0.12,VWS V14.01,2013-02-13 23:50:00,
2013-02-13 17:55:00,44.3,37.9,29.86,South,178,3.0,5.0,78,0.00,,CLR,0.12,VWS V14.01,2013-02-13 23:55:00,
2013-02-13 18:05:00,43.8,38.0,29.86,SSW,202,2.0,4.0,80,0.00,,CLR,0.12,VWS V14.01,2013-02-14 00:05:00,
2013-02-13 18:15:00,43.3,37.6,29.86,SSW,193,4.0,5.0,80,0.00,,CLR,0.12,VWS V14.01,2013-02-14 00:15:00,
2013-02-13 18:20:00,43.2,37.5,29.86,SSE,165,2.0,6.0,80,0.00,,CLR,0.12,VWS V14.01,2013-02-14 00:20:00,
2013-02-13 18:25:00,43.2,37.8,29.86,South,183,5.0,6.0,81,0.00,,CLR,0.12,VWS V14.01,2013-02-14 00:25:00,
2013-02-13 18:30:00,43.1,37.7,29.86,South,169,5.0,7.0,81,0.00,,CLR,0.12,VWS V14.01,2013-02-14 00:30:00,
2013-02-13 18:40:00,43.1,38.3,29.86,SSE,166,4.0,9.0,83,0.00,,CLR,0.12,VWS V14.01,2013-02-14 00:40:00,
2013-02-13 18:45:00,43.1,38.3,29.87,SSE,162,4.0,9.0,83,0.00,,CLR,0.12,VWS V14.01,2013-02-14 00:45:00,
2013-02-13 18:50:00,43.1,38.0,29.87,SSE,155,7.0,8.0,82,0.00,,CLR,0.12,VWS V14.01,2013-02-14 00:50:00,
2013-02-13 18:55:00,43.1,38.3,29.87,South,190,3.0,9.0,83,0.00,,CLR,0.12,VWS V14.01,2013-02-14 00:55:00,
2013-02-13 19:00:00,42.9,38.1,29.87,South,170,7.0,10.0,83,0.00,,CLR,0.12,VWS V14.01,2013-02-14 01:00:00,
2013-02-13 19:10:00,42.6,37.8,29.87,South,177,4.0,9.0,83,0.00,,CLR,0.12,VWS V14.01,2013-02-14 01:10:00,
2013-02-13 19:20:00,42.3,37.8,29.87,South,187,4.0,9.0,84,0.00,,CLR,0.12,VWS V14.01,2013-02-14 01:20:00,
2013-02-13 19:30:00,42.1,37.6,29.87,SSW,198,2.0,9.0,84,0.00,,CLR,0.12,VWS V14.01,2013-02-14 01:30:00,
2013-02-13 19:35:00,41.9,37.4,29.87,SSW,202,2.0,11.0,84,0.00,,CLR,0.12,VWS V14.01,2013-02-14 01:35:00,
2013-02-13 19:45:00,41.9,37.4,29.88,South,183,4.0,10.0,84,0.00,,CLR,0.12,VWS V14.01,2013-02-14 01:45:00,
2013-02-13 19:50:00,41.8,37.3,29.88,South,169,5.0,8.0,84,0.00,,CLR,0.12,VWS V14.01,2013-02-14 01:50:00,
2013-02-13 19:55:00,41.8,37.3,29.88,SSW,196,3.0,9.0,84,0.00,,CLR,0.12,VWS V14.01,2013-02-14 01:55:00,
2013-02-13 20:05:00,41.6,37.1,29.88,SW,233,5.0,7.0,84,0.00,,CLR,0.12,VWS V14.01,2013-02-14 02:05:00,
2013-02-13 20:10:00,41.6,37.1,29.88,South,183,6.0,8.0,84,0.00,,CLR,0.12,VWS V14.01,2013-02-14 02:10:00,
2013-02-13 20:15:00,41.5,37.0,29.88,SW,224,4.0,7.0,84,0.00,,CLR,0.12,VWS V14.01,2013-02-14 02:15:00,
2013-02-13 20:20:00,41.3,36.8,29.88,South,174,1.0,7.0,84,0.00,,CLR,0.12,VWS V14.01,2013-02-14 02:20:00,
2013-02-13 20:30:00,41.2,36.7,29.88,SSE,155,1.0,7.0,84,0.00,,CLR,0.12,VWS V14.01,2013-02-14 02:30:00,
2013-02-13 20:35:00,41.1,36.9,29.88,SW,221,1.0,6.0,85,0.00,,CLR,0.12,VWS V14.01,2013-02-14 02:35:00,
2013-02-13 20:45:00,40.8,36.7,29.88,South,178,2.0,6.0,85,0.00,,CLR,0.12,VWS V14.01,2013-02-14 02:45:00,
2013-02-13 20:55:00,40.6,36.5,29.88,South,169,2.0,6.0,85,0.00,,CLR,0.12,VWS V14.01,2013-02-14 02:55:00,
2013-02-13 21:00:00,40.5,36.3,29.89,SW,217,1.0,5.0,85,0.00,,CLR,0.12,VWS V14.01,2013-02-14 03:00:00,
2013-02-13 21:05:00,40.5,36.3,29.89,South,172,6.0,7.0,85,0.00,,CLR,0.12,VWS V14.01,2013-02-14 03:05:00,
2013-02-13 21:10:00,40.5,36.3,29.89,South,184,4.0,7.0,85,0.00,,CLR,0.12,VWS V14.01,2013-02-14 03:10:00,
2013-02-13 21:20:00,40.3,36.2,29.89,SSW,213,5.0,5.0,85,0.00,,CLR,0.12,VWS V14.01,2013-02-14 03:20:00,
2013-02-13 21:25:00,40.2,36.3,29.89,SSW,205,0.0,5.0,86,0.00,,CLR,0.12,VWS V14.01,2013-02-14 03:25:00,
2013-02-13 21:30:00,40.1,36.3,29.89,SSW,201,0.0,4.0,86,0.00,,CLR,0.12,VWS V14.01,2013-02-14 03:30:00,
2013-02-13 21:40:00,40.1,36.3,29.89,SSW,192,4.0,5.0,86,0.00,,CLR,0.12,VWS V14.01,2013-02-14 03:40:00,
2013-02-13 21:45:00,39.9,36.1,29.89,SSE,160,4.0,5.0,86,0.00,,CLR,0.12,VWS V14.01,2013-02-14 03:45:00,
2013-02-13 21:50:00,39.9,36.1,29.89,SSW,210,3.0,5.0,86,0.00,,CLR,0.12,VWS V14.01,2013-02-14 03:50:00,
2013-02-13 22:00:00,39.8,36.0,29.89,South,190,3.0,6.0,86,0.00,,CLR,0.12,VWS V14.01,2013-02-14 04:00:00,
2013-02-13 22:05:00,39.6,35.8,29.89,South,188,2.0,6.0,86,0.00,,CLR,0.12,VWS V14.01,2013-02-14 04:05:00,
2013-02-13 22:15:00,39.3,35.5,29.89,SSW,203,3.0,5.0,86,0.00,,CLR,0.12,VWS V14.01,2013-02-14 04:15:00,
2013-02-13 22:20:00,39.2,35.4,29.89,SSW,205,1.0,6.0,86,0.00,,CLR,0.12,VWS V14.01,2013-02-14 04:20:00,
2013-02-13 22:25:00,39.2,35.4,29.89,SW,225,0.0,5.0,86,0.00,,CLR,0.12,VWS V14.01,2013-02-14 04:25:00,
2013-02-13 22:30:00,39.2,35.7,29.90,SSW,211,1.0,6.0,87,0.00,,CLR,0.12,VWS V14.01,2013-02-14 04:30:00,
2013-02-13 22:40:00,39.1,35.6,29.90,South,186,2.0,4.0,87,0.00,,CLR,0.12,VWS V14.01,2013-02-14 04:40:00,
2013-02-13 22:50:00,38.9,35.4,29.90,South,181,5.0,5.0,87,0.00,,CLR,0.12,VWS V14.01,2013-02-14 04:50:00,
2013-02-13 22:55:00,38.9,35.4,29.90,SW,215,0.0,5.0,87,0.00,,CLR,0.12,VWS V14.01,2013-02-14 04:55:00,
2013-02-13 23:00:00,39.1,35.6,29.90,SW,233,0.0,6.0,87,0.00,,CLR,0.12,VWS V14.01,2013-02-14 05:00:00,
2013-02-13 23:05:00,39.2,35.7,29.90,SSE,163,5.0,6.0,87,0.00,,CLR,0.12,VWS V14.01,2013-02-14 05:05:00,
2013-02-13 23:10:00,39.1,35.6,29.90,South,180,2.0,6.0,87,0.00,,CLR,0.12,VWS V14.01,2013-02-14 05:10:00,
2013-02-13 23:15:00,38.9,35.4,29.90,South,184,2.0,6.0,87,0.00,,CLR,0.12,VWS V14.01,2013-02-14 05:15:00,
2013-02-13 23:25:00,38.6,35.1,29.90,SSE,165,4.0,5.0,87,0.00,,CLR,0.12,VWS V14.01,2013-02-14 05:25:00,
2013-02-13 23:35:00,38.6,35.1,29.91,South,187,1.0,6.0,87,0.00,,CLR,0.12,VWS V14.01,2013-02-14 05:35:00,
2013-02-13 23:45:00,38.5,35.3,29.91,SW,217,2.0,6.0,88,0.00,,CLR,0.12,VWS V14.01,2013-02-14 05:45:00,
2013-02-13 23:50:00,38.5,35.3,29.91,South,181,4.0,8.0,88,0.00,,CLR,0.12,VWS V14.01,2013-02-14 05:50:00,